sensor_id;sensor_type;location;lat;lon;timestamp;P1;durP1;ratioP1;P2;durP2;ratioP2
61903;SDS011;47857;52.270;6.804;2023-02-28T00:02:17;11.60;;;5.32;;
61903;SDS011;47857;52.270;6.804;2023-02-28T00:04:43;8.20;;;4.95;;
61903;SDS011;47857;52.270;6.804;2023-02-28T00:07:09;11.45;;;5.60;;
61903;SDS011;47857;52.270;6.804;2023-02-28T00:09:34;9.23;;;4.95;;
61903;SDS011;47857;52.270;6.804;2023-02-28T00:12:00;12.07;;;4.85;;
61903;SDS011;47857;52.270;6.804;2023-02-28T00:14:29;11.32;;;5.35;;
61903;SDS011;47857;52.270;6.804;2023-02-28T00:16:55;10.05;;;5.20;;
61903;SDS011;47857;52.270;6.804;2023-02-28T00:19:20;12.20;;;5.15;;
61903;SDS011;47857;52.270;6.804;2023-02-28T00:21:46;8.30;;;5.00;;
61903;SDS011;47857;52.270;6.804;2023-02-28T00:24:11;13.27;;;5.38;;
61903;SDS011;47857;52.270;6.804;2023-02-28T00:26:37;9.70;;;4.80;;
61903;SDS011;47857;52.270;6.804;2023-02-28T00:29:02;9.98;;;4.95;;
61903;SDS011;47857;52.270;6.804;2023-02-28T00:31:28;7.97;;;4.63;;
61903;SDS011;47857;52.270;6.804;2023-02-28T00:33:53;11.38;;;4.72;;
61903;SDS011;47857;52.270;6.804;2023-02-28T00:36:19;9.85;;;4.72;;
61903;SDS011;47857;52.270;6.804;2023-02-28T00:38:45;8.52;;;4.50;;
61903;SDS011;47857;52.270;6.804;2023-02-28T00:41:11;10.55;;;5.20;;
61903;SDS011;47857;52.270;6.804;2023-02-28T00:43:37;7.32;;;4.35;;
61903;SDS011;47857;52.270;6.804;2023-02-28T00:46:05;8.63;;;4.72;;
61903;SDS011;47857;52.270;6.804;2023-02-28T00:48:30;10.02;;;4.60;;
61903;SDS011;47857;52.270;6.804;2023-02-28T00:50:56;12.75;;;4.95;;
61903;SDS011;47857;52.270;6.804;2023-02-28T00:53:22;10.93;;;4.82;;
61903;SDS011;47857;52.270;6.804;2023-02-28T00:55:48;9.98;;;4.95;;
61903;SDS011;47857;52.270;6.804;2023-02-28T00:58:14;9.38;;;4.65;;
61903;SDS011;47857;52.270;6.804;2023-02-28T01:00:40;10.32;;;4.70;;
61903;SDS011;47857;52.270;6.804;2023-02-28T01:03:05;7.75;;;4.65;;
61903;SDS011;47857;52.270;6.804;2023-02-28T01:05:31;7.97;;;4.63;;
61903;SDS011;47857;52.270;6.804;2023-02-28T01:07:56;8.80;;;4.82;;
61903;SDS011;47857;52.270;6.804;2023-02-28T01:10:22;8.85;;;4.80;;
61903;SDS011;47857;52.270;6.804;2023-02-28T01:12:48;8.32;;;4.53;;
61903;SDS011;47857;52.270;6.804;2023-02-28T01:15:14;6.97;;;4.13;;
61903;SDS011;47857;52.270;6.804;2023-02-28T01:17:40;8.48;;;4.78;;
61903;SDS011;47857;52.270;6.804;2023-02-28T01:20:05;9.98;;;5.35;;
61903;SDS011;47857;52.270;6.804;2023-02-28T01:22:31;12.55;;;5.30;;
61903;SDS011;47857;52.270;6.804;2023-02-28T01:24:57;11.20;;;5.80;;
61903;SDS011;47857;52.270;6.804;2023-02-28T01:27:22;9.57;;;5.38;;
61903;SDS011;47857;52.270;6.804;2023-02-28T01:29:48;11.20;;;5.47;;
61903;SDS011;47857;52.270;6.804;2023-02-28T01:32:14;9.55;;;5.68;;
61903;SDS011;47857;52.270;6.804;2023-02-28T01:34:40;11.88;;;5.75;;
61903;SDS011;47857;52.270;6.804;2023-02-28T01:37:05;14.63;;;6.00;;
61903;SDS011;47857;52.270;6.804;2023-02-28T01:39:31;10.70;;;5.82;;
61903;SDS011;47857;52.270;6.804;2023-02-28T01:41:56;10.88;;;5.65;;
61903;SDS011;47857;52.270;6.804;2023-02-28T01:47:20;10.57;;;5.60;;
61903;SDS011;47857;52.270;6.804;2023-02-28T01:49:46;10.65;;;5.80;;
61903;SDS011;47857;52.270;6.804;2023-02-28T01:52:12;10.95;;;5.75;;
61903;SDS011;47857;52.270;6.804;2023-02-28T01:54:43;13.30;;;5.82;;
61903;SDS011;47857;52.270;6.804;2023-02-28T01:57:13;9.00;;;5.60;;
61903;SDS011;47857;52.270;6.804;2023-02-28T01:59:42;9.90;;;5.63;;
61903;SDS011;47857;52.270;6.804;2023-02-28T02:02:16;10.75;;;5.35;;
61903;SDS011;47857;52.270;6.804;2023-02-28T02:04:50;12.02;;;5.30;;
61903;SDS011;47857;52.270;6.804;2023-02-28T02:07:18;10.07;;;5.63;;
61903;SDS011;47857;52.270;6.804;2023-02-28T02:09:43;9.23;;;5.25;;
61903;SDS011;47857;52.270;6.804;2023-02-28T02:12:14;10.95;;;5.30;;
61903;SDS011;47857;52.270;6.804;2023-02-28T02:14:56;11.60;;;5.28;;
61903;SDS011;47857;52.270;6.804;2023-02-28T02:17:31;10.18;;;4.88;;
61903;SDS011;47857;52.270;6.804;2023-02-28T02:25:59;8.75;;;5.05;;
61903;SDS011;47857;52.270;6.804;2023-02-28T02:31:27;9.68;;;4.70;;
61903;SDS011;47857;52.270;6.804;2023-02-28T02:34:07;9.23;;;5.05;;
61903;SDS011;47857;52.270;6.804;2023-02-28T02:36:38;9.07;;;4.93;;
61903;SDS011;47857;52.270;6.804;2023-02-28T02:39:27;9.23;;;4.63;;
61903;SDS011;47857;52.270;6.804;2023-02-28T02:41:58;10.00;;;4.60;;
61903;SDS011;47857;52.270;6.804;2023-02-28T02:44:47;10.07;;;4.53;;
61903;SDS011;47857;52.270;6.804;2023-02-28T02:47:15;7.10;;;4.57;;
61903;SDS011;47857;52.270;6.804;2023-02-28T02:49:45;12.05;;;4.53;;
61903;SDS011;47857;52.270;6.804;2023-02-28T02:52:14;8.63;;;4.80;;
61903;SDS011;47857;52.270;6.804;2023-02-28T02:54:43;10.35;;;5.30;;
61903;SDS011;47857;52.270;6.804;2023-02-28T02:57:11;8.57;;;4.90;;
61903;SDS011;47857;52.270;6.804;2023-02-28T02:59:40;7.65;;;4.90;;
61903;SDS011;47857;52.270;6.804;2023-02-28T03:02:08;10.52;;;5.45;;
61903;SDS011;47857;52.270;6.804;2023-02-28T03:04:43;12.98;;;5.72;;
61903;SDS011;47857;52.270;6.804;2023-02-28T03:07:11;13.43;;;5.78;;
61903;SDS011;47857;52.270;6.804;2023-02-28T03:09:38;9.68;;;5.20;;
61903;SDS011;47857;52.270;6.804;2023-02-28T03:12:06;9.93;;;5.70;;
61903;SDS011;47857;52.270;6.804;2023-02-28T03:17:45;10.35;;;5.88;;
61903;SDS011;47857;52.270;6.804;2023-02-28T03:28:41;11.43;;;5.35;;
61903;SDS011;47857;52.270;6.804;2023-02-28T03:31:30;9.55;;;5.60;;
61903;SDS011;47857;52.270;6.804;2023-02-28T03:36:37;10.35;;;5.32;;
61903;SDS011;47857;52.270;6.804;2023-02-28T03:39:09;9.43;;;4.95;;
61903;SDS011;47857;52.270;6.804;2023-02-28T03:41:42;13.45;;;5.53;;
61903;SDS011;47857;52.270;6.804;2023-02-28T03:44:56;9.88;;;5.78;;
61903;SDS011;47857;52.270;6.804;2023-02-28T03:47:29;12.77;;;5.90;;
61903;SDS011;47857;52.270;6.804;2023-02-28T03:52:36;11.15;;;5.47;;
61903;SDS011;47857;52.270;6.804;2023-02-28T03:55:06;11.55;;;6.00;;
61903;SDS011;47857;52.270;6.804;2023-02-28T04:00:19;11.45;;;5.70;;
61903;SDS011;47857;52.270;6.804;2023-02-28T04:02:46;14.68;;;5.85;;
61903;SDS011;47857;52.270;6.804;2023-02-28T04:05:18;11.35;;;5.82;;
61903;SDS011;47857;52.270;6.804;2023-02-28T04:07:44;9.40;;;5.68;;
61903;SDS011;47857;52.270;6.804;2023-02-28T04:10:10;11.00;;;5.50;;
61903;SDS011;47857;52.270;6.804;2023-02-28T04:12:36;9.73;;;5.80;;
61903;SDS011;47857;52.270;6.804;2023-02-28T04:15:02;10.57;;;5.90;;
61903;SDS011;47857;52.270;6.804;2023-02-28T04:17:28;11.20;;;6.28;;
61903;SDS011;47857;52.270;6.804;2023-02-28T04:19:53;11.85;;;6.07;;
61903;SDS011;47857;52.270;6.804;2023-02-28T04:22:22;9.77;;;6.18;;
61903;SDS011;47857;52.270;6.804;2023-02-28T04:24:51;11.93;;;6.00;;
61903;SDS011;47857;52.270;6.804;2023-02-28T04:27:18;14.00;;;5.90;;
61903;SDS011;47857;52.270;6.804;2023-02-28T04:29:44;10.50;;;6.18;;
61903;SDS011;47857;52.270;6.804;2023-02-28T04:32:09;17.00;;;7.10;;
61903;SDS011;47857;52.270;6.804;2023-02-28T04:34:35;11.95;;;6.30;;
61903;SDS011;47857;52.270;6.804;2023-02-28T04:37:01;11.07;;;6.13;;
61903;SDS011;47857;52.270;6.804;2023-02-28T04:39:28;11.45;;;6.35;;
61903;SDS011;47857;52.270;6.804;2023-02-28T04:41:54;13.15;;;6.35;;
61903;SDS011;47857;52.270;6.804;2023-02-28T04:44:20;10.35;;;6.03;;
61903;SDS011;47857;52.270;6.804;2023-02-28T04:46:47;12.48;;;5.60;;
61903;SDS011;47857;52.270;6.804;2023-02-28T04:49:13;10.38;;;5.35;;
61903;SDS011;47857;52.270;6.804;2023-02-28T04:51:39;10.07;;;5.63;;
61903;SDS011;47857;52.270;6.804;2023-02-28T04:54:05;9.15;;;5.13;;
61903;SDS011;47857;52.270;6.804;2023-02-28T04:56:30;10.23;;;5.93;;
61903;SDS011;47857;52.270;6.804;2023-02-28T04:58:56;11.57;;;5.57;;
61903;SDS011;47857;52.270;6.804;2023-02-28T05:03:49;11.63;;;5.53;;
61903;SDS011;47857;52.270;6.804;2023-02-28T05:06:15;13.05;;;5.60;;
61903;SDS011;47857;52.270;6.804;2023-02-28T05:08:40;8.35;;;5.53;;
61903;SDS011;47857;52.270;6.804;2023-02-28T05:11:07;9.35;;;5.72;;
61903;SDS011;47857;52.270;6.804;2023-02-28T05:16:05;8.18;;;5.57;;
61903;SDS011;47857;52.270;6.804;2023-02-28T05:18:31;11.25;;;5.97;;
61903;SDS011;47857;52.270;6.804;2023-02-28T05:20:57;10.43;;;6.10;;
61903;SDS011;47857;52.270;6.804;2023-02-28T05:23:22;13.48;;;6.03;;
61903;SDS011;47857;52.270;6.804;2023-02-28T05:25:48;13.27;;;5.38;;
61903;SDS011;47857;52.270;6.804;2023-02-28T05:28:14;13.07;;;5.93;;
61903;SDS011;47857;52.270;6.804;2023-02-28T05:30:39;12.30;;;5.47;;
61903;SDS011;47857;52.270;6.804;2023-02-28T05:33:05;11.43;;;5.70;;
61903;SDS011;47857;52.270;6.804;2023-02-28T05:35:30;12.57;;;5.60;;
61903;SDS011;47857;52.270;6.804;2023-02-28T05:37:56;10.85;;;5.85;;
61903;SDS011;47857;52.270;6.804;2023-02-28T05:40:22;13.57;;;5.82;;
61903;SDS011;47857;52.270;6.804;2023-02-28T05:42:48;13.07;;;5.60;;
61903;SDS011;47857;52.270;6.804;2023-02-28T05:45:15;12.60;;;5.90;;
61903;SDS011;47857;52.270;6.804;2023-02-28T05:47:42;11.15;;;5.90;;
61903;SDS011;47857;52.270;6.804;2023-02-28T05:50:08;10.60;;;5.90;;
61903;SDS011;47857;52.270;6.804;2023-02-28T05:52:35;12.43;;;5.78;;
61903;SDS011;47857;52.270;6.804;2023-02-28T05:55:01;12.27;;;5.80;;
61903;SDS011;47857;52.270;6.804;2023-02-28T05:57:26;10.27;;;5.45;;
61903;SDS011;47857;52.270;6.804;2023-02-28T05:59:52;14.60;;;5.60;;
61903;SDS011;47857;52.270;6.804;2023-02-28T06:02:17;10.75;;;5.32;;
61903;SDS011;47857;52.270;6.804;2023-02-28T06:04:43;13.40;;;5.53;;
61903;SDS011;47857;52.270;6.804;2023-02-28T06:07:09;8.65;;;5.10;;
61903;SDS011;47857;52.270;6.804;2023-02-28T06:09:35;9.90;;;5.63;;
61903;SDS011;47857;52.270;6.804;2023-02-28T06:12:01;9.55;;;5.90;;
61903;SDS011;47857;52.270;6.804;2023-02-28T06:14:31;11.63;;;5.00;;
61903;SDS011;47857;52.270;6.804;2023-02-28T06:16:57;14.75;;;5.50;;
61903;SDS011;47857;52.270;6.804;2023-02-28T06:19:23;13.55;;;5.18;;
61903;SDS011;47857;52.270;6.804;2023-02-28T06:21:51;14.05;;;5.28;;
61903;SDS011;47857;52.270;6.804;2023-02-28T06:24:18;12.10;;;5.55;;
61903;SDS011;47857;52.270;6.804;2023-02-28T06:26:44;9.93;;;5.20;;
61903;SDS011;47857;52.270;6.804;2023-02-28T06:29:10;11.80;;;5.47;;
61903;SDS011;47857;52.270;6.804;2023-02-28T06:31:36;10.60;;;5.15;;
61903;SDS011;47857;52.270;6.804;2023-02-28T06:34:03;9.02;;;4.82;;
61903;SDS011;47857;52.270;6.804;2023-02-28T06:36:29;11.13;;;4.82;;
61903;SDS011;47857;52.270;6.804;2023-02-28T06:38:54;10.50;;;5.10;;
61903;SDS011;47857;52.270;6.804;2023-02-28T06:41:22;8.93;;;4.75;;
61903;SDS011;47857;52.270;6.804;2023-02-28T06:43:50;8.48;;;4.38;;
61903;SDS011;47857;52.270;6.804;2023-02-28T06:46:16;8.85;;;4.60;;
61903;SDS011;47857;52.270;6.804;2023-02-28T06:48:45;7.90;;;4.72;;
61903;SDS011;47857;52.270;6.804;2023-02-28T06:51:13;6.78;;;4.40;;
61903;SDS011;47857;52.270;6.804;2023-02-28T06:53:47;9.50;;;4.70;;
61903;SDS011;47857;52.270;6.804;2023-02-28T06:56:14;8.30;;;4.53;;
61903;SDS011;47857;52.270;6.804;2023-02-28T06:58:40;8.80;;;4.15;;
61903;SDS011;47857;52.270;6.804;2023-02-28T07:01:06;9.00;;;4.30;;
61903;SDS011;47857;52.270;6.804;2023-02-28T07:03:32;7.57;;;4.68;;
61903;SDS011;47857;52.270;6.804;2023-02-28T07:05:58;7.90;;;4.55;;
61903;SDS011;47857;52.270;6.804;2023-02-28T07:08:24;10.35;;;4.45;;
61903;SDS011;47857;52.270;6.804;2023-02-28T07:10:56;8.07;;;4.25;;
61903;SDS011;47857;52.270;6.804;2023-02-28T07:13:22;8.77;;;4.28;;
61903;SDS011;47857;52.270;6.804;2023-02-28T07:15:58;9.02;;;4.50;;
61903;SDS011;47857;52.270;6.804;2023-02-28T07:18:31;10.05;;;4.35;;
61903;SDS011;47857;52.270;6.804;2023-02-28T07:20:56;7.93;;;3.95;;
61903;SDS011;47857;52.270;6.804;2023-02-28T07:23:22;6.70;;;4.22;;
61903;SDS011;47857;52.270;6.804;2023-02-28T07:25:49;10.63;;;4.50;;
61903;SDS011;47857;52.270;6.804;2023-02-28T07:28:15;8.23;;;4.00;;
61903;SDS011;47857;52.270;6.804;2023-02-28T07:30:41;8.30;;;4.18;;
61903;SDS011;47857;52.270;6.804;2023-02-28T07:33:06;11.68;;;4.40;;
61903;SDS011;47857;52.270;6.804;2023-02-28T07:35:32;10.20;;;4.18;;
61903;SDS011;47857;52.270;6.804;2023-02-28T07:37:58;6.80;;;3.60;;
61903;SDS011;47857;52.270;6.804;2023-02-28T07:40:24;10.25;;;4.03;;
61903;SDS011;47857;52.270;6.804;2023-02-28T07:42:50;7.93;;;3.40;;
61903;SDS011;47857;52.270;6.804;2023-02-28T07:45:16;6.22;;;3.20;;
61903;SDS011;47857;52.270;6.804;2023-02-28T07:47:42;8.13;;;3.05;;
61903;SDS011;47857;52.270;6.804;2023-02-28T07:50:09;7.47;;;2.97;;
61903;SDS011;47857;52.270;6.804;2023-02-28T07:52:36;5.20;;;2.65;;
61903;SDS011;47857;52.270;6.804;2023-02-28T07:55:03;5.28;;;2.45;;
61903;SDS011;47857;52.270;6.804;2023-02-28T07:57:30;4.38;;;2.35;;
61903;SDS011;47857;52.270;6.804;2023-02-28T07:59:55;3.42;;;2.35;;
61903;SDS011;47857;52.270;6.804;2023-02-28T08:02:21;5.38;;;2.42;;
61903;SDS011;47857;52.270;6.804;2023-02-28T08:04:47;4.60;;;2.00;;
61903;SDS011;47857;52.270;6.804;2023-02-28T08:07:13;4.32;;;2.00;;
61903;SDS011;47857;52.270;6.804;2023-02-28T08:09:40;3.22;;;1.63;;
61903;SDS011;47857;52.270;6.804;2023-02-28T08:12:06;4.25;;;2.00;;
61903;SDS011;47857;52.270;6.804;2023-02-28T08:14:32;4.63;;;1.95;;
61903;SDS011;47857;52.270;6.804;2023-02-28T08:16:58;3.47;;;1.95;;
61903;SDS011;47857;52.270;6.804;2023-02-28T08:19:23;4.22;;;1.90;;
61903;SDS011;47857;52.270;6.804;2023-02-28T08:21:49;4.38;;;2.25;;
61903;SDS011;47857;52.270;6.804;2023-02-28T08:24:14;4.35;;;2.28;;
61903;SDS011;47857;52.270;6.804;2023-02-28T08:26:40;4.30;;;1.67;;
61903;SDS011;47857;52.270;6.804;2023-02-28T08:29:05;4.22;;;1.50;;
61903;SDS011;47857;52.270;6.804;2023-02-28T08:31:31;2.63;;;1.60;;
61903;SDS011;47857;52.270;6.804;2023-02-28T08:33:56;2.58;;;1.50;;
61903;SDS011;47857;52.270;6.804;2023-02-28T08:36:24;5.55;;;2.15;;
61903;SDS011;47857;52.270;6.804;2023-02-28T08:38:51;5.32;;;2.78;;
61903;SDS011;47857;52.270;6.804;2023-02-28T08:41:16;6.20;;;2.80;;
61903;SDS011;47857;52.270;6.804;2023-02-28T08:43:42;5.53;;;2.28;;
61903;SDS011;47857;52.270;6.804;2023-02-28T08:46:08;6.45;;;2.20;;
61903;SDS011;47857;52.270;6.804;2023-02-28T08:48:36;3.85;;;2.00;;
61903;SDS011;47857;52.270;6.804;2023-02-28T08:51:09;2.42;;;1.38;;
61903;SDS011;47857;52.270;6.804;2023-02-28T08:53:36;3.30;;;1.30;;
61903;SDS011;47857;52.270;6.804;2023-02-28T08:56:03;1.67;;;1.17;;
61903;SDS011;47857;52.270;6.804;2023-02-28T08:58:39;3.38;;;1.50;;
61903;SDS011;47857;52.270;6.804;2023-02-28T09:01:09;2.35;;;1.40;;
61903;SDS011;47857;52.270;6.804;2023-02-28T09:03:37;2.58;;;1.60;;
61903;SDS011;47857;52.270;6.804;2023-02-28T09:06:02;3.33;;;1.20;;
61903;SDS011;47857;52.270;6.804;2023-02-28T09:08:29;2.40;;;1.20;;
61903;SDS011;47857;52.270;6.804;2023-02-28T09:10:55;4.47;;;1.42;;
61903;SDS011;47857;52.270;6.804;2023-02-28T09:13:23;1.67;;;1.10;;
61903;SDS011;47857;52.270;6.804;2023-02-28T09:15:49;3.45;;;1.40;;
61903;SDS011;47857;52.270;6.804;2023-02-28T09:18:14;3.05;;;1.38;;
61903;SDS011;47857;52.270;6.804;2023-02-28T09:20:41;1.75;;;1.10;;
61903;SDS011;47857;52.270;6.804;2023-02-28T09:23:07;2.33;;;1.00;;
61903;SDS011;47857;52.270;6.804;2023-02-28T09:25:35;1.77;;;1.05;;
61903;SDS011;47857;52.270;6.804;2023-02-28T09:28:00;3.20;;;1.05;;
61903;SDS011;47857;52.270;6.804;2023-02-28T09:30:26;2.92;;;1.35;;
61903;SDS011;47857;52.270;6.804;2023-02-28T09:32:52;4.45;;;1.52;;
61903;SDS011;47857;52.270;6.804;2023-02-28T09:35:22;1.90;;;1.10;;
61903;SDS011;47857;52.270;6.804;2023-02-28T09:37:51;1.25;;;0.90;;
61903;SDS011;47857;52.270;6.804;2023-02-28T09:40:18;3.45;;;0.90;;
61903;SDS011;47857;52.270;6.804;2023-02-28T09:42:45;1.00;;;0.80;;
61903;SDS011;47857;52.270;6.804;2023-02-28T09:45:26;4.45;;;1.35;;
61903;SDS011;47857;52.270;6.804;2023-02-28T09:48:02;1.80;;;0.98;;
61903;SDS011;47857;52.270;6.804;2023-02-28T09:50:31;2.13;;;1.05;;
61903;SDS011;47857;52.270;6.804;2023-02-28T09:56:30;2.88;;;1.33;;
61903;SDS011;47857;52.270;6.804;2023-02-28T10:01:27;2.45;;;1.13;;
61903;SDS011;47857;52.270;6.804;2023-02-28T10:11:40;4.43;;;1.30;;
61903;SDS011;47857;52.270;6.804;2023-02-28T10:16:43;3.22;;;1.35;;
61903;SDS011;47857;52.270;6.804;2023-02-28T10:19:14;1.73;;;0.90;;
61903;SDS011;47857;52.270;6.804;2023-02-28T10:21:49;1.67;;;0.88;;
61903;SDS011;47857;52.270;6.804;2023-02-28T10:27:06;2.33;;;0.95;;
61903;SDS011;47857;52.270;6.804;2023-02-28T10:29:39;1.45;;;0.93;;
61903;SDS011;47857;52.270;6.804;2023-02-28T10:32:08;1.50;;;0.80;;
61903;SDS011;47857;52.270;6.804;2023-02-28T10:34:37;1.95;;;1.10;;
61903;SDS011;47857;52.270;6.804;2023-02-28T10:37:04;1.92;;;0.98;;
61903;SDS011;47857;52.270;6.804;2023-02-28T10:42:18;1.90;;;0.75;;
61903;SDS011;47857;52.270;6.804;2023-02-28T10:45:11;1.77;;;1.00;;
61903;SDS011;47857;52.270;6.804;2023-02-28T10:47:57;3.95;;;1.10;;
61903;SDS011;47857;52.270;6.804;2023-02-28T10:50:27;2.53;;;1.00;;
61903;SDS011;47857;52.270;6.804;2023-02-28T10:55:35;1.35;;;0.70;;
61903;SDS011;47857;52.270;6.804;2023-02-28T10:58:01;2.00;;;0.93;;
61903;SDS011;47857;52.270;6.804;2023-02-28T11:00:31;1.65;;;0.88;;
61903;SDS011;47857;52.270;6.804;2023-02-28T11:02:58;1.70;;;0.90;;
61903;SDS011;47857;52.270;6.804;2023-02-28T11:07:53;2.25;;;0.80;;
61903;SDS011;47857;52.270;6.804;2023-02-28T11:10:20;1.33;;;0.70;;
61903;SDS011;47857;52.270;6.804;2023-02-28T11:12:46;2.10;;;1.02;;
61903;SDS011;47857;52.270;6.804;2023-02-28T11:15:21;1.63;;;0.80;;
61903;SDS011;47857;52.270;6.804;2023-02-28T11:17:55;1.67;;;0.90;;
61903;SDS011;47857;52.270;6.804;2023-02-28T11:20:23;1.90;;;0.75;;
61903;SDS011;47857;52.270;6.804;2023-02-28T11:22:50;1.40;;;0.90;;
61903;SDS011;47857;52.270;6.804;2023-02-28T11:25:21;1.38;;;0.80;;
61903;SDS011;47857;52.270;6.804;2023-02-28T11:27:50;2.70;;;1.20;;
61903;SDS011;47857;52.270;6.804;2023-02-28T11:30:24;2.20;;;1.00;;
61903;SDS011;47857;52.270;6.804;2023-02-28T11:32:51;4.32;;;0.90;;
61903;SDS011;47857;52.270;6.804;2023-02-28T11:35:18;2.53;;;0.80;;
61903;SDS011;47857;52.270;6.804;2023-02-28T11:37:48;3.47;;;1.17;;
61903;SDS011;47857;52.270;6.804;2023-02-28T11:43:18;1.70;;;1.00;;
61903;SDS011;47857;52.270;6.804;2023-02-28T11:46:01;2.58;;;1.00;;
61903;SDS011;47857;52.270;6.804;2023-02-28T11:48:36;1.67;;;1.00;;
61903;SDS011;47857;52.270;6.804;2023-02-28T11:51:28;1.63;;;1.05;;
61903;SDS011;47857;52.270;6.804;2023-02-28T11:56:48;2.05;;;1.13;;
61903;SDS011;47857;52.270;6.804;2023-02-28T12:02:05;2.90;;;1.10;;
61903;SDS011;47857;52.270;6.804;2023-02-28T12:04:45;2.00;;;1.05;;
61903;SDS011;47857;52.270;6.804;2023-02-28T12:15:28;2.10;;;1.08;;
61903;SDS011;47857;52.270;6.804;2023-02-28T12:20:46;2.35;;;1.20;;
61903;SDS011;47857;52.270;6.804;2023-02-28T12:26:26;2.53;;;1.25;;
61903;SDS011;47857;52.270;6.804;2023-02-28T12:31:52;3.10;;;1.20;;
61903;SDS011;47857;52.270;6.804;2023-02-28T12:34:28;2.78;;;1.20;;
61903;SDS011;47857;52.270;6.804;2023-02-28T12:36:58;2.00;;;1.02;;
61903;SDS011;47857;52.270;6.804;2023-02-28T12:39:28;2.85;;;1.27;;
61903;SDS011;47857;52.270;6.804;2023-02-28T12:44:35;3.20;;;1.17;;
61903;SDS011;47857;52.270;6.804;2023-02-28T12:47:05;4.22;;;1.40;;
61903;SDS011;47857;52.270;6.804;2023-02-28T12:49:41;3.15;;;1.23;;
61903;SDS011;47857;52.270;6.804;2023-02-28T12:54:40;3.15;;;1.10;;
61903;SDS011;47857;52.270;6.804;2023-02-28T12:59:45;3.35;;;1.20;;
61903;SDS011;47857;52.270;6.804;2023-02-28T13:05:10;2.17;;;1.00;;
61903;SDS011;47857;52.270;6.804;2023-02-28T13:10:14;2.53;;;1.13;;
61903;SDS011;47857;52.270;6.804;2023-02-28T13:15:38;3.63;;;1.30;;
61903;SDS011;47857;52.270;6.804;2023-02-28T13:18:20;3.42;;;1.25;;
61903;SDS011;47857;52.270;6.804;2023-02-28T13:21:23;3.60;;;1.00;;
61903;SDS011;47857;52.270;6.804;2023-02-28T13:26:21;1.80;;;0.80;;
61903;SDS011;47857;52.270;6.804;2023-02-28T13:34:31;1.90;;;1.02;;
61903;SDS011;47857;52.270;6.804;2023-02-28T13:39:57;2.75;;;0.90;;
61903;SDS011;47857;52.270;6.804;2023-02-28T13:47:27;1.83;;;0.93;;
61903;SDS011;47857;52.270;6.804;2023-02-28T13:50:13;1.60;;;0.95;;
61903;SDS011;47857;52.270;6.804;2023-02-28T13:52:43;2.58;;;1.20;;
61903;SDS011;47857;52.270;6.804;2023-02-28T13:58:07;1.55;;;0.98;;
61903;SDS011;47857;52.270;6.804;2023-02-28T14:06:34;2.72;;;1.30;;
61903;SDS011;47857;52.270;6.804;2023-02-28T14:11:38;2.58;;;0.93;;
61903;SDS011;47857;52.270;6.804;2023-02-28T14:14:06;1.95;;;1.00;;
61903;SDS011;47857;52.270;6.804;2023-02-28T14:16:46;1.98;;;1.10;;
61903;SDS011;47857;52.270;6.804;2023-02-28T14:19:17;2.13;;;1.10;;
61903;SDS011;47857;52.270;6.804;2023-02-28T14:33:22;2.15;;;1.20;;
61903;SDS011;47857;52.270;6.804;2023-02-28T14:38:27;6.97;;;1.60;;
61903;SDS011;47857;52.270;6.804;2023-02-28T14:40:56;2.80;;;1.20;;
61903;SDS011;47857;52.270;6.804;2023-02-28T14:43:23;2.85;;;1.10;;
61903;SDS011;47857;52.270;6.804;2023-02-28T14:45:51;2.03;;;1.00;;
61903;SDS011;47857;52.270;6.804;2023-02-28T14:48:20;1.85;;;1.10;;
61903;SDS011;47857;52.270;6.804;2023-02-28T14:50:49;4.05;;;1.00;;
61903;SDS011;47857;52.270;6.804;2023-02-28T14:53:18;1.77;;;1.00;;
61903;SDS011;47857;52.270;6.804;2023-02-28T14:55:45;2.33;;;1.30;;
61903;SDS011;47857;52.270;6.804;2023-02-28T15:00:57;2.63;;;1.05;;
61903;SDS011;47857;52.270;6.804;2023-02-28T15:05:59;2.28;;;1.23;;
61903;SDS011;47857;52.270;6.804;2023-02-28T15:08:27;2.15;;;1.00;;
61903;SDS011;47857;52.270;6.804;2023-02-28T15:13:38;3.22;;;1.30;;
61903;SDS011;47857;52.270;6.804;2023-02-28T15:16:28;3.03;;;1.20;;
61903;SDS011;47857;52.270;6.804;2023-02-28T15:21:47;2.60;;;1.23;;
61903;SDS011;47857;52.270;6.804;2023-02-28T15:26:56;5.00;;;1.20;;
61903;SDS011;47857;52.270;6.804;2023-02-28T15:29:24;2.22;;;1.08;;
61903;SDS011;47857;52.270;6.804;2023-02-28T15:32:00;2.45;;;1.15;;
61903;SDS011;47857;52.270;6.804;2023-02-28T15:34:38;3.00;;;1.20;;
61903;SDS011;47857;52.270;6.804;2023-02-28T15:39:57;2.00;;;1.20;;
61903;SDS011;47857;52.270;6.804;2023-02-28T15:42:27;2.05;;;0.98;;
61903;SDS011;47857;52.270;6.804;2023-02-28T15:44:54;2.15;;;1.10;;
61903;SDS011;47857;52.270;6.804;2023-02-28T15:47:23;2.70;;;1.48;;
61903;SDS011;47857;52.270;6.804;2023-02-28T15:49:55;2.00;;;1.08;;
61903;SDS011;47857;52.270;6.804;2023-02-28T15:55:17;5.82;;;1.70;;
61903;SDS011;47857;52.270;6.804;2023-02-28T15:57:48;4.65;;;1.30;;
61903;SDS011;47857;52.270;6.804;2023-02-28T16:00:18;3.35;;;1.60;;
61903;SDS011;47857;52.270;6.804;2023-02-28T16:02:45;2.95;;;1.50;;
61903;SDS011;47857;52.270;6.804;2023-02-28T16:07:37;3.40;;;1.80;;
61903;SDS011;47857;52.270;6.804;2023-02-28T16:10:03;3.35;;;1.88;;
61903;SDS011;47857;52.270;6.804;2023-02-28T16:12:31;2.22;;;1.58;;
61903;SDS011;47857;52.270;6.804;2023-02-28T16:14:59;2.17;;;1.50;;
61903;SDS011;47857;52.270;6.804;2023-02-28T16:17:33;2.85;;;1.27;;
61903;SDS011;47857;52.270;6.804;2023-02-28T16:19:59;3.00;;;1.60;;
61903;SDS011;47857;52.270;6.804;2023-02-28T16:22:25;4.57;;;1.40;;
61903;SDS011;47857;52.270;6.804;2023-02-28T16:24:51;2.65;;;1.40;;
61903;SDS011;47857;52.270;6.804;2023-02-28T16:27:18;2.92;;;1.50;;
61903;SDS011;47857;52.270;6.804;2023-02-28T16:29:55;2.85;;;1.30;;
61903;SDS011;47857;52.270;6.804;2023-02-28T16:32:21;3.42;;;1.23;;
61903;SDS011;47857;52.270;6.804;2023-02-28T16:34:47;2.22;;;1.13;;
61903;SDS011;47857;52.270;6.804;2023-02-28T16:37:14;4.50;;;1.38;;
61903;SDS011;47857;52.270;6.804;2023-02-28T16:39:42;3.88;;;1.20;;
61903;SDS011;47857;52.270;6.804;2023-02-28T16:42:14;2.78;;;1.33;;
61903;SDS011;47857;52.270;6.804;2023-02-28T16:44:41;1.90;;;1.10;;
61903;SDS011;47857;52.270;6.804;2023-02-28T16:47:08;3.47;;;1.30;;
61903;SDS011;47857;52.270;6.804;2023-02-28T16:49:35;1.55;;;1.20;;
61903;SDS011;47857;52.270;6.804;2023-02-28T16:52:01;2.78;;;1.30;;
61903;SDS011;47857;52.270;6.804;2023-02-28T16:54:26;2.45;;;1.30;;
61903;SDS011;47857;52.270;6.804;2023-02-28T16:56:52;1.92;;;1.20;;
61903;SDS011;47857;52.270;6.804;2023-02-28T16:59:24;2.33;;;1.30;;
61903;SDS011;47857;52.270;6.804;2023-02-28T17:01:51;2.35;;;1.45;;
61903;SDS011;47857;52.270;6.804;2023-02-28T17:04:17;3.58;;;1.42;;
61903;SDS011;47857;52.270;6.804;2023-02-28T17:06:42;2.75;;;1.58;;
61903;SDS011;47857;52.270;6.804;2023-02-28T17:09:11;4.03;;;1.90;;
61903;SDS011;47857;52.270;6.804;2023-02-28T17:11:41;2.72;;;1.75;;
61903;SDS011;47857;52.270;6.804;2023-02-28T17:14:06;4.75;;;2.00;;
61903;SDS011;47857;52.270;6.804;2023-02-28T17:16:33;3.67;;;1.90;;
61903;SDS011;47857;52.270;6.804;2023-02-28T17:19:02;7.20;;;2.80;;
61903;SDS011;47857;52.270;6.804;2023-02-28T17:21:29;4.68;;;2.17;;
61903;SDS011;47857;52.270;6.804;2023-02-28T17:23:56;4.82;;;2.65;;
61903;SDS011;47857;52.270;6.804;2023-02-28T17:26:22;4.80;;;2.58;;
61903;SDS011;47857;52.270;6.804;2023-02-28T17:28:50;4.53;;;2.22;;
61903;SDS011;47857;52.270;6.804;2023-02-28T17:31:16;3.95;;;2.38;;
61903;SDS011;47857;52.270;6.804;2023-02-28T17:33:42;4.75;;;2.47;;
61903;SDS011;47857;52.270;6.804;2023-02-28T17:36:15;3.78;;;1.73;;
61903;SDS011;47857;52.270;6.804;2023-02-28T17:38:43;3.97;;;2.20;;
61903;SDS011;47857;52.270;6.804;2023-02-28T17:41:11;4.00;;;2.33;;